RYR1401 LFOB-EGJJ
Flight info
| Callsign | RYR1401 |
|---|---|
| Flight time | N/A |
| Altitude | 18000 |
| Route | LGL1V LGL H490 SENLO G274 BEVAV BEVAV1K |
| Aircraft | B738/M-V/N |
Departure
| Time | 2026-04-22 20:56 |
|---|---|
| Airport | Beauvais-Tillé airport (LFOB) |
Arrival
| Time | N/A |
|---|---|
| Airport | Jersey Airport (EGJJ) |
| Time | Latitude | Longitude | Altitude | Speed | Heading |
|---|---|---|---|---|---|
| 2026-04-22 20:24 | 49.45898 | 2.11431 | 354 ft | 0 kts | 336° |
| 2026-04-22 20:47 | 49.45882 | 2.11443 | 354 ft | 4 kts | 334° |
| 2026-04-22 20:47 | 49.45862 | 2.11458 | 357 ft | 4 kts | 322° |
| 2026-04-22 20:48 | 49.45848 | 2.11487 | 355 ft | 4 kts | 273° |
| 2026-04-22 20:48 | 49.45854 | 2.11523 | 357 ft | 4 kts | 231° |
| 2026-04-22 20:48 | 49.45873 | 2.11551 | 358 ft | 4 kts | 218° |
| 2026-04-22 20:48 | 49.45892 | 2.11574 | 354 ft | 2 kts | 221° |
| 2026-04-22 20:51 | 49.45857 | 2.11527 | 357 ft | 13 kts | 221° |
| 2026-04-22 20:51 | 49.45786 | 2.11424 | 346 ft | 14 kts | 224° |
| 2026-04-22 20:51 | 49.45714 | 2.11324 | 352 ft | 14 kts | 221° |
| 2026-04-22 20:51 | 49.45706 | 2.11237 | 348 ft | 8 kts | 292° |
| 2026-04-22 20:52 | 49.45737 | 2.11159 | 346 ft | 9 kts | 303° |
| 2026-04-22 20:52 | 49.45775 | 2.11071 | 354 ft | 10 kts | 303° |
| 2026-04-22 20:52 | 49.45776 | 2.10982 | 356 ft | 4 kts | 220° |
| 2026-04-22 20:52 | 49.45759 | 2.10967 | 349 ft | 0 kts | 210° |
| 2026-04-22 20:54 | 49.45758 | 2.10965 | 349 ft | 3 kts | 210° |
| 2026-04-22 20:54 | 49.45715 | 2.10928 | 353 ft | 8 kts | 209° |
| 2026-04-22 20:54 | 49.45665 | 2.10886 | 352 ft | 8 kts | 209° |
| 2026-04-22 20:55 | 49.45613 | 2.10897 | 356 ft | 8 kts | 138° |
| 2026-04-22 20:55 | 49.45590 | 2.10944 | 348 ft | 0 kts | 123° |
| 2026-04-22 20:55 | 49.45527 | 2.11089 | 347 ft | 49 kts | 123° |
| 2026-04-22 20:56 | 49.45325 | 2.11553 | 334 ft | 106 kts | 123° |
| 2026-04-22 20:56 | 49.44535 | 2.13295 | 597 ft | 177 kts | 123° |
| 2026-04-22 20:56 | 49.43788 | 2.14654 | 1922 ft | 160 kts | 136° |
| 2026-04-22 20:56 | 49.42722 | 2.15398 | 2800 ft | 178 kts | 147° |
| 2026-04-22 20:57 | 49.41934 | 2.16762 | 3395 ft | 179 kts | 101° |
| 2026-04-22 20:57 | 49.42081 | 2.18622 | 4089 ft | 171 kts | 73° |
| 2026-04-22 20:57 | 49.42458 | 2.19627 | 4971 ft | 160 kts | 50° |
| 2026-04-22 20:57 | 49.43534 | 2.20440 | 5407 ft | 196 kts | 11° |
| 2026-04-22 20:58 | 49.44937 | 2.20037 | 5840 ft | 219 kts | 335° |
| 2026-04-22 20:58 | 49.46087 | 2.18437 | 6254 ft | 235 kts | 309° |
| 2026-04-22 20:58 | 49.47080 | 2.16364 | 6668 ft | 247 kts | 307° |
| 2026-04-22 20:58 | 49.48106 | 2.14157 | 7032 ft | 261 kts | 307° |
| 2026-04-22 20:59 | 49.49178 | 2.11838 | 7396 ft | 271 kts | 307° |
| 2026-04-22 20:59 | 49.50274 | 2.09461 | 7761 ft | 273 kts | 307° |
| 2026-04-22 20:59 | 49.51363 | 2.07080 | 8190 ft | 272 kts | 304° |
| 2026-04-22 20:59 | 49.51988 | 2.04322 | 8765 ft | 279 kts | 270° |
| 2026-04-22 21:00 | 49.51622 | 2.01418 | 9251 ft | 278 kts | 244° |
| 2026-04-22 21:00 | 49.50471 | 1.99103 | 9267 ft | 272 kts | 214° |
| 2026-04-22 21:00 | 49.48822 | 1.97738 | 9278 ft | 268 kts | 197° |
| 2026-04-22 21:00 | 49.47162 | 1.96834 | 9403 ft | 269 kts | 195° |
| 2026-04-22 21:01 | 49.45351 | 1.95888 | 10008 ft | 273 kts | 195° |
| 2026-04-22 21:01 | 49.43582 | 1.94946 | 10654 ft | 274 kts | 196° |